Time;durP1;ratioP1;P1;durP2;ratioP2;P2;SDS_P1;SDS_P2;PMS_P1;PMS_P2;Temp;Humidity;BMP_temperature;BMP_pressure;BME280_temperature;BME280_humidity;BME280_pressure;Samples;Min_cycle;Max_cycle;Signal;HPM_P1;HPM_P2
2022/10/16 00:01:59;;;;;;;;;;;12.80;99.90;;;;;;5032678;28;19917;-72
2022/10/16 00:04:25;;;;;;;;;;;12.80;99.90;;;;;;5031388;28;19924;-73
2022/10/16 00:06:50;;;;;;;;;;;13.00;99.90;;;;;;5046866;28;19970;-73
2022/10/16 00:09:16;;;;;;;;;;;12.50;99.90;;;;;;5050949;28;19916;-72
2022/10/16 00:11:41;;;;;;;;;;;12.50;99.90;;;;;;5052540;28;19916;-73
2022/10/16 00:14:09;;;;;;;;;;;12.60;99.90;;;;;;5052163;28;19924;-73
2022/10/16 00:16:35;;;;;;;;;;;12.60;99.90;;;;;;5051333;28;20354;-73
2022/10/16 00:19:00;;;;;;;;;;;12.70;99.90;;;;;;5051205;28;20003;-73
2022/10/16 00:21:27;;;;;;;;;;;12.60;99.90;;;;;;5051685;28;19942;-70
2022/10/16 00:23:54;;;;;;;;;;;12.60;99.90;;;;;;5029508;28;20021;-73
2022/10/16 00:26:20;;;;;;;;;;;12.60;99.90;;;;;;5031399;28;19917;-72
2022/10/16 00:28:47;;;;;;;;;;;12.50;99.90;;;;;;5031297;28;19924;-73
2022/10/16 00:31:12;;;;;;;;;;;12.60;99.90;;;;;;5014509;28;20457;-73
2022/10/16 00:33:38;;;;;;;;;;;12.80;99.90;;;;;;5031206;28;19960;-73
2022/10/16 00:36:04;;;;;;;;;;;12.50;99.90;;;;;;5030629;28;19921;-72
2022/10/16 00:38:30;;;;;;;;;;;12.60;99.90;;;;;;5030885;28;19917;-73
2022/10/16 00:40:56;;;;;;;;;;;12.50;99.90;;;;;;5014370;28;19924;-73
2022/10/16 00:43:37;;;;;;;;;;;12.60;99.90;;;;;;5032011;28;20003;-74
2022/10/16 00:46:03;;;;;;;;;;;12.70;99.90;;;;;;5030531;28;19921;-73
2022/10/16 00:48:30;;;;;;;;;;;12.50;99.90;;;;;;5032134;28;19964;-73
2022/10/16 00:50:56;;;;;;;;;;;12.70;99.90;;;;;;5031851;28;19971;-73
2022/10/16 00:53:23;;;;;;;;;;;12.70;99.90;;;;;;5014623;28;19952;-73
2022/10/16 00:55:48;;;;;;;;;;;12.70;99.90;;;;;;5031351;28;19921;-73
2022/10/16 00:58:14;;;;;;;;;;;12.80;99.90;;;;;;5030727;28;20322;-73
2022/10/16 01:00:39;;;;;;;;;;;12.80;99.90;;;;;;5033478;28;19996;-73
2022/10/16 01:03:22;;;;;;;;;;;12.80;99.90;;;;;;5036078;28;19970;-73
2022/10/16 01:05:59;;;;;;;;;;;12.90;99.90;;;;;;5035849;28;19921;-73
2022/10/16 01:08:40;;;;;;;;;;;12.80;99.90;;;;;;5035942;28;20537;-73
2022/10/16 01:11:32;;;;;;;;;;;12.70;99.90;;;;;;5036728;28;19917;-73
2022/10/16 01:13:59;;;;;;;;;;;12.70;99.90;;;;;;5030064;28;19916;-73
2022/10/16 01:16:29;;;;;;;;;;;12.90;99.90;;;;;;5034466;28;19964;-73
2022/10/16 01:19:01;;;;;;;;;;;12.90;99.90;;;;;;5034721;28;20362;-73
2022/10/16 01:21:33;;;;;;;;;;;12.80;99.90;;;;;;5034643;28;19917;-73
2022/10/16 01:24:04;;;;;;;;;;;12.80;99.90;;;;;;5034134;28;20015;-73
2022/10/16 01:26:39;;;;;;;;;;;12.90;99.90;;;;;;5034506;28;20340;-73
2022/10/16 01:29:15;;;;;;;;;;;12.90;99.90;;;;;;5035263;28;19928;-73
2022/10/16 01:31:41;;;;;;;;;;;12.80;99.90;;;;;;5035266;28;19916;-73
2022/10/16 01:34:14;;;;;;;;;;;12.80;99.90;;;;;;5035926;28;20350;-73
2022/10/16 01:36:48;;;;;;;;;;;13.00;99.90;;;;;;5045467;28;19970;-73
2022/10/16 01:39:14;;;;;;;;;;;12.70;99.90;;;;;;5054377;28;19963;-73
2022/10/16 01:41:42;;;;;;;;;;;12.90;99.90;;;;;;5054354;28;19917;-73
2022/10/16 01:44:17;;;;;;;;;;;13.00;99.90;;;;;;5035255;28;20393;-73
2022/10/16 01:46:45;;;;;;;;;;;12.90;99.90;;;;;;5037701;28;20008;-73
2022/10/16 01:49:11;;;;;;;;;;;12.90;99.90;;;;;;5055031;28;19923;-73
2022/10/16 01:51:37;;;;;;;;;;;12.80;99.90;;;;;;5053573;28;19924;-73
2022/10/16 01:54:04;;;;;;;;;;;13.00;99.90;;;;;;5053436;28;19916;-73
2022/10/16 01:56:30;;;;;;;;;;;12.80;99.90;;;;;;5053602;28;19916;-74
2022/10/16 01:59:00;;;;;;;;;;;13.00;99.90;;;;;;5053678;28;20015;-73
2022/10/16 02:01:26;;;;;;;;;;;12.90;99.90;;;;;;5053229;28;19917;-73
2022/10/16 02:03:54;;;;;;;;;;;12.90;99.90;;;;;;5053365;28;19924;-72
2022/10/16 02:06:20;;;;;;;;;;;12.80;99.90;;;;;;5054849;28;19917;-73
2022/10/16 02:08:46;;;;;;;;;;;12.90;99.90;;;;;;5053671;28;20384;-73
2022/10/16 02:11:11;;;;;;;;;;;13.00;99.90;;;;;;5055295;28;19967;-73
2022/10/16 02:13:59;;;;;;;;;;;13.60;99.90;;;;;;5052505;28;19963;-73
2022/10/16 02:16:32;;;;;;;;;;;12.90;99.90;;;;;;5036677;28;19920;-73
2022/10/16 02:18:57;;;;;;;;;;;13.00;99.90;;;;;;5051890;28;19916;-73
2022/10/16 02:21:29;;;;;;;;;;;12.90;99.90;;;;;;5036501;28;19920;-73
2022/10/16 02:24:02;;;;;;;;;;;13.20;99.90;;;;;;5052897;28;19956;-73
2022/10/16 02:26:30;;;;;;;;;;;12.90;99.90;;;;;;5041948;28;20298;-73
2022/10/16 02:29:00;;;;;;;;;;;12.90;99.90;;;;;;5033150;28;19917;-73
2022/10/16 02:31:27;;;;;;;;;;;12.90;99.90;;;;;;5033024;28;20383;-73
2022/10/16 02:33:54;;;;;;;;;;;12.90;99.90;;;;;;5034007;28;20397;-73
2022/10/16 02:36:21;;;;;;;;;;;13.00;99.90;;;;;;5033192;28;19921;-73
2022/10/16 02:38:46;;;;;;;;;;;12.80;99.90;;;;;;5034185;28;19928;-73
2022/10/16 02:41:12;;;;;;;;;;;12.70;99.90;;;;;;5049235;28;19920;-73
2022/10/16 02:43:37;;;;;;;;;;;12.70;99.90;;;;;;5054188;28;20397;-73
2022/10/16 02:46:03;;;;;;;;;;;12.60;99.90;;;;;;5053855;28;20294;-73
2022/10/16 02:48:28;;;;;;;;;;;13.70;99.90;;;;;;5052781;28;19991;-73
2022/10/16 02:50:54;;;;;;;;;;;12.70;99.90;;;;;;5035882;28;19923;-73
2022/10/16 02:53:19;;;;;;;;;;;12.70;99.90;;;;;;5052897;28;20019;-73
2022/10/16 02:55:45;;;;;;;;;;;12.90;99.90;;;;;;5050720;28;19943;-73
2022/10/16 02:58:10;;;;;;;;;;;12.70;99.90;;;;;;5047464;28;20040;-73
2022/10/16 03:00:36;;;;;;;;;;;12.60;99.90;;;;;;5033774;28;19924;-73
2022/10/16 03:03:01;;;;;;;;;;;12.50;99.90;;;;;;5032763;28;19928;-73
2022/10/16 03:05:27;;;;;;;;;;;12.50;99.90;;;;;;5033478;28;20386;-73
2022/10/16 03:07:52;;;;;;;;;;;12.50;99.90;;;;;;5033656;28;19917;-73
2022/10/16 03:10:18;;;;;;;;;;;12.30;99.90;;;;;;5032212;28;20402;-73
2022/10/16 03:12:43;;;;;;;;;;;12.40;99.90;;;;;;5033331;28;19916;-73
2022/10/16 03:15:09;;;;;;;;;;;12.40;99.90;;;;;;5031925;28;19920;-73
2022/10/16 03:17:34;;;;;;;;;;;12.70;99.90;;;;;;5032268;28;19917;-73
2022/10/16 03:20:00;;;;;;;;;;;12.60;99.90;;;;;;5032114;28;19979;-73
2022/10/16 03:22:25;;;;;;;;;;;12.50;99.90;;;;;;5033010;28;19916;-73
2022/10/16 03:24:51;;;;;;;;;;;12.40;99.90;;;;;;5033045;28;19917;-73
2022/10/16 03:27:17;;;;;;;;;;;12.70;99.90;;;;;;5033359;28;19963;-73
2022/10/16 03:29:42;;;;;;;;;;;12.60;99.90;;;;;;5022912;28;19917;-73
2022/10/16 03:32:08;;;;;;;;;;;12.50;99.90;;;;;;5052862;28;19923;-73
2022/10/16 03:34:33;;;;;;;;;;;12.50;99.90;;;;;;5052443;28;20337;-73
2022/10/16 03:36:59;;;;;;;;;;;12.40;99.90;;;;;;5051589;28;20007;-73
2022/10/16 03:39:24;;;;;;;;;;;12.40;99.90;;;;;;5051845;28;20014;-73
2022/10/16 03:41:50;;;;;;;;;;;12.30;99.90;;;;;;5035449;28;20267;-73
2022/10/16 03:44:15;;;;;;;;;;;12.40;99.90;;;;;;5052870;28;19917;-73
2022/10/16 03:46:41;;;;;;;;;;;12.50;99.90;;;;;;5040025;28;20391;-73
2022/10/16 03:49:06;;;;;;;;;;;12.20;99.90;;;;;;5031863;28;19964;-73
2022/10/16 03:51:32;;;;;;;;;;;12.70;99.90;;;;;;5031519;28;19927;-73
2022/10/16 03:53:57;;;;;;;;;;;12.40;99.90;;;;;;5032622;28;20354;-73
2022/10/16 03:56:23;;;;;;;;;;;12.70;99.90;;;;;;5031475;28;19924;-73
2022/10/16 03:58:48;;;;;;;;;;;12.30;99.90;;;;;;5031757;28;20362;-73
2022/10/16 04:01:14;;;;;;;;;;;12.50;99.90;;;;;;5033034;28;19917;-73
2022/10/16 04:03:39;;;;;;;;;;;12.50;99.90;;;;;;5034077;28;19967;-73
2022/10/16 04:06:05;;;;;;;;;;;12.50;99.90;;;;;;5033516;28;19917;-73
2022/10/16 04:08:30;;;;;;;;;;;12.60;99.90;;;;;;5033106;28;20414;-74
2022/10/16 04:10:56;;;;;;;;;;;;;;;;;;5031160;28;20400;-73
2022/10/16 04:13:22;;;;;;;;;;;12.50;99.90;;;;;;5032846;28;19921;-73
2022/10/16 04:15:47;;;;;;;;;;;12.50;99.90;;;;;;5032199;28;19921;-73
2022/10/16 04:18:13;;;;;;;;;;;12.60;99.90;;;;;;5032503;28;19917;-73
2022/10/16 04:20:38;;;;;;;;;;;12.50;99.90;;;;;;5049021;28;19917;-73
2022/10/16 04:23:04;;;;;;;;;;;12.30;99.90;;;;;;5052469;28;19925;-73
2022/10/16 04:25:30;;;;;;;;;;;12.70;99.90;;;;;;5052202;28;19931;-73
2022/10/16 04:27:55;;;;;;;;;;;12.50;99.90;;;;;;5050985;28;19916;-73
2022/10/16 04:30:21;;;;;;;;;;;12.60;99.90;;;;;;5051896;28;19923;-73
2022/10/16 04:32:50;;;;;;;;;;;12.60;99.90;;;;;;5049783;28;19917;-73
2022/10/16 04:35:15;;;;;;;;;;;12.60;99.90;;;;;;5013598;28;20298;-73
2022/10/16 04:37:41;;;;;;;;;;;;;;;;;;5032211;28;19920;-73
2022/10/16 04:40:07;;;;;;;;;;;12.70;99.90;;;;;;5030825;28;20406;-73
2022/10/16 04:42:32;;;;;;;;;;;12.60;99.90;;;;;;5032200;28;19963;-72
2022/10/16 04:44:58;;;;;;;;;;;12.80;99.90;;;;;;5031765;28;19970;-73
2022/10/16 04:47:23;;;;;;;;;;;12.70;99.90;;;;;;5030960;28;19924;-72
2022/10/16 04:49:49;;;;;;;;;;;12.60;99.90;;;;;;5031690;28;19917;-73
2022/10/16 04:52:15;;;;;;;;;;;12.60;99.90;;;;;;5032128;28;20291;-73
2022/10/16 04:54:40;;;;;;;;;;;12.80;99.90;;;;;;5030438;28;19921;-73
2022/10/16 04:57:06;;;;;;;;;;;12.80;99.90;;;;;;5030765;28;20030;-73
2022/10/16 04:59:31;;;;;;;;;;;12.80;99.90;;;;;;5032053;28;20383;-73
2022/10/16 05:01:57;;;;;;;;;;;12.70;99.90;;;;;;5030701;28;19923;-73
2022/10/16 05:04:22;;;;;;;;;;;12.80;99.90;;;;;;5030664;28;19917;-73
2022/10/16 05:06:48;;;;;;;;;;;12.80;99.90;;;;;;5030905;28;19916;-73
2022/10/16 05:09:13;;;;;;;;;;;12.70;99.90;;;;;;5030816;28;20397;-73
2022/10/16 05:11:39;;;;;;;;;;;12.70;99.90;;;;;;5014243;28;19916;-73
2022/10/16 05:14:04;;;;;;;;;;;12.60;99.90;;;;;;5013938;28;19929;-73
2022/10/16 05:16:30;;;;;;;;;;;12.70;99.90;;;;;;5030503;28;19917;-73
2022/10/16 05:18:56;;;;;;;;;;;12.50;99.90;;;;;;5031639;28;19960;-73
2022/10/16 05:21:22;;;;;;;;;;;12.80;99.90;;;;;;5030441;28;19928;-73
2022/10/16 05:23:47;;;;;;;;;;;12.90;99.90;;;;;;5030612;28;20370;-73
2022/10/16 05:26:13;;;;;;;;;;;12.70;99.90;;;;;;5048786;28;19916;-73
2022/10/16 05:28:38;;;;;;;;;;;12.80;99.90;;;;;;5050206;28;20402;-73
2022/10/16 05:31:08;;;;;;;;;;;12.90;99.90;;;;;;5050590;28;19921;-73
2022/10/16 05:33:34;;;;;;;;;;;12.90;99.90;;;;;;5051703;28;19917;-73
2022/10/16 05:36:07;;;;;;;;;;;12.60;99.90;;;;;;5050045;28;19936;-73
2022/10/16 05:38:36;;;;;;;;;;;12.60;99.90;;;;;;5050286;28;19921;-73
2022/10/16 05:41:02;;;;;;;;;;;12.80;99.90;;;;;;5051625;28;19920;-73
2022/10/16 05:43:28;;;;;;;;;;;12.70;99.90;;;;;;5050220;28;19916;-73
2022/10/16 05:45:55;;;;;;;;;;;12.70;99.90;;;;;;5034067;28;19923;-73
2022/10/16 05:48:20;;;;;;;;;;;12.60;99.90;;;;;;5055070;28;19995;-73
2022/10/16 05:50:46;;;;;;;;;;;12.80;99.90;;;;;;5053958;28;20556;-73
2022/10/16 05:53:11;;;;;;;;;;;13.90;99.90;;;;;;5053903;28;19920;-73
2022/10/16 05:55:37;;;;;;;;;;;12.50;99.90;;;;;;5053331;28;19944;-73
2022/10/16 05:58:02;;;;;;;;;;;12.50;99.90;;;;;;5053754;28;19952;-73
2022/10/16 06:00:28;;;;;;;;;;;12.80;99.90;;;;;;5053561;28;19959;-73
2022/10/16 06:02:53;;;;;;;;;;;;;;;;;;5051082;28;19924;-73
2022/10/16 06:05:19;;;;;;;;;;;12.60;99.90;;;;;;5053178;28;20365;-73
2022/10/16 06:07:44;;;;;;;;;;;12.80;99.90;;;;;;5054867;28;19916;-73
2022/10/16 06:10:10;;;;;;;;;;;12.70;99.90;;;;;;5054540;28;19917;-73
2022/10/16 06:12:35;;;;;;;;;;;12.90;99.90;;;;;;5053390;28;19916;-73
2022/10/16 06:15:02;;;;;;;;;;;12.60;99.90;;;;;;5054278;28;19920;-73
2022/10/16 06:17:27;;;;;;;;;;;12.70;99.90;;;;;;5017860;28;19917;-73
2022/10/16 06:19:53;;;;;;;;;;;12.60;99.90;;;;;;5032872;28;19970;-73
2022/10/16 06:22:18;;;;;;;;;;;12.70;99.90;;;;;;5033300;28;20003;-73
2022/10/16 06:24:43;;;;;;;;;;;12.70;99.90;;;;;;5034419;28;20279;-73
2022/10/16 06:27:09;;;;;;;;;;;12.80;99.90;;;;;;5033498;28;20071;-73
2022/10/16 06:29:34;;;;;;;;;;;12.70;99.90;;;;;;5036364;28;19916;-73
2022/10/16 06:32:00;;;;;;;;;;;12.80;99.90;;;;;;5037864;28;19980;-74
2022/10/16 06:34:25;;;;;;;;;;;12.80;99.90;;;;;;5054335;28;20390;-73
2022/10/16 06:36:51;;;;;;;;;;;12.80;99.90;;;;;;5054004;28;20371;-73
2022/10/16 06:39:16;;;;;;;;;;;12.90;99.90;;;;;;5052864;28;19956;-73
2022/10/16 06:41:42;;;;;;;;;;;12.90;99.90;;;;;;5053354;28;20387;-73
2022/10/16 06:44:09;;;;;;;;;;;;;;;;;;5045041;28;19971;-73
2022/10/16 06:46:34;;;;;;;;;;;12.90;99.90;;;;;;5033188;28;19917;-73
2022/10/16 06:49:00;;;;;;;;;;;13.00;99.90;;;;;;5016293;28;19924;-73
2022/10/16 06:51:26;;;;;;;;;;;13.00;99.90;;;;;;5041148;28;19917;-73
2022/10/16 06:53:52;;;;;;;;;;;12.90;99.90;;;;;;5047720;28;19927;-73
2022/10/16 06:56:22;;;;;;;;;;;13.10;99.90;;;;;;5035865;28;19974;-73
2022/10/16 06:58:48;;;;;;;;;;;13.10;99.90;;;;;;5051410;28;19916;-73
2022/10/16 07:01:14;;;;;;;;;;;12.90;99.90;;;;;;5035732;28;19924;-73
2022/10/16 07:03:41;;;;;;;;;;;12.90;99.90;;;;;;5052445;28;19917;-73
2022/10/16 07:06:08;;;;;;;;;;;12.90;99.90;;;;;;5035465;28;19916;-73
2022/10/16 07:08:34;;;;;;;;;;;12.70;99.90;;;;;;5052466;28;19917;-74
2022/10/16 07:11:03;;;;;;;;;;;13.00;99.90;;;;;;5053110;28;19917;-74
2022/10/16 07:13:29;;;;;;;;;;;12.90;99.90;;;;;;5032361;28;20441;-73
2022/10/16 07:15:54;;;;;;;;;;;13.00;99.90;;;;;;5024617;28;19920;-74
2022/10/16 07:18:20;;;;;;;;;;;13.00;99.90;;;;;;5052095;28;19916;-73
2022/10/16 07:20:45;;;;;;;;;;;12.80;99.90;;;;;;5023631;28;19971;-74
2022/10/16 07:23:11;;;;;;;;;;;12.90;99.90;;;;;;5051361;28;19986;-74
2022/10/16 07:25:36;;;;;;;;;;;12.90;99.90;;;;;;5040817;28;19917;-73
2022/10/16 07:28:02;;;;;;;;;;;12.90;99.90;;;;;;5045641;28;20398;-73
2022/10/16 07:30:27;;;;;;;;;;;13.00;99.90;;;;;;5040577;28;19923;-73
2022/10/16 07:32:53;;;;;;;;;;;12.90;99.90;;;;;;5034482;28;19924;-72
2022/10/16 07:35:18;;;;;;;;;;;13.90;99.90;;;;;;5031762;28;20405;-74
2022/10/16 07:37:45;;;;;;;;;;;12.70;99.90;;;;;;5031883;28;20009;-74
2022/10/16 07:40:11;;;;;;;;;;;13.00;99.90;;;;;;5032000;28;19917;-73
2022/10/16 07:42:36;;;;;;;;;;;12.90;99.90;;;;;;5032042;28;19923;-73
2022/10/16 07:45:02;;;;;;;;;;;13.00;99.90;;;;;;5034953;28;20382;-73
2022/10/16 07:47:27;;;;;;;;;;;12.90;99.90;;;;;;5055039;28;20394;-73
2022/10/16 07:49:53;;;;;;;;;;;13.00;99.90;;;;;;5031678;28;19967;-73
2022/10/16 07:52:18;;;;;;;;;;;13.60;99.90;;;;;;5018026;28;19917;-73
2022/10/16 07:54:44;;;;;;;;;;;13.20;99.90;;;;;;5036100;28;19940;-74
2022/10/16 07:57:09;;;;;;;;;;;13.00;99.90;;;;;;5056349;28;20463;-73
2022/10/16 07:59:35;;;;;;;;;;;13.20;99.90;;;;;;5049445;28;19928;-72
2022/10/16 08:02:00;;;;;;;;;;;13.10;99.90;;;;;;5056020;28;20008;-74
2022/10/16 08:04:26;;;;;;;;;;;13.50;99.90;;;;;;5050601;28;20476;-72
2022/10/16 08:06:51;;;;;;;;;;;13.30;99.90;;;;;;5061066;28;19920;-73
2022/10/16 08:09:17;;;;;;;;;;;13.20;99.90;;;;;;5055528;28;19916;-72
2022/10/16 08:11:42;;;;;;;;;;;13.50;99.90;;;;;;5059331;28;19921;-72
2022/10/16 08:14:08;;;;;;;;;;;13.50;99.90;;;;;;5060976;28;19970;-72
2022/10/16 08:16:33;;;;;;;;;;;13.80;99.90;;;;;;5058530;28;19921;-73
2022/10/16 08:18:59;;;;;;;;;;;13.80;99.90;;;;;;5046168;28;19917;-73
2022/10/16 08:21:24;;;;;;;;;;;13.70;99.90;;;;;;5053815;28;19916;-73
2022/10/16 08:23:50;;;;;;;;;;;14.20;99.90;;;;;;5027091;28;19916;-75
2022/10/16 08:26:16;;;;;;;;;;;14.10;99.90;;;;;;5059837;28;19974;-72
2022/10/16 08:28:41;;;;;;;;;;;14.80;99.90;;;;;;5057339;28;20618;-73
2022/10/16 08:31:07;;;;;;;;;;;14.00;99.90;;;;;;5056151;28;20003;-72
2022/10/16 08:33:34;;;;;;;;;;;14.00;99.90;;;;;;5037249;28;19939;-73
2022/10/16 08:36:00;;;;;;;;;;;14.20;99.90;;;;;;5042614;28;19921;-73
2022/10/16 08:38:25;;;;;;;;;;;14.70;99.90;;;;;;5040490;28;19924;-73
2022/10/16 08:40:51;;;;;;;;;;;14.60;99.90;;;;;;5031610;28;19925;-73
2022/10/16 08:43:20;;;;;;;;;;;15.70;99.90;;;;;;5038282;28;19917;-73
2022/10/16 08:46:01;;;;;;;;;;;14.60;99.90;;;;;;5042636;28;19917;-73
2022/10/16 08:48:30;;;;;;;;;;;14.40;99.90;;;;;;5052565;28;19952;-73
2022/10/16 08:50:55;;;;;;;;;;;14.50;99.90;;;;;;5048381;28;19924;-73
2022/10/16 08:53:25;;;;;;;;;;;14.50;99.90;;;;;;5053876;28;20362;-73
2022/10/16 08:55:52;;;;;;;;;;;14.50;99.90;;;;;;5042253;28;19925;-73
2022/10/16 08:58:19;;;;;;;;;;;14.70;99.90;;;;;;5050932;28;19924;-73
2022/10/16 09:00:54;;;;;;;;;;;14.70;99.90;;;;;;5045098;28;19917;-74
2022/10/16 09:03:38;;;;;;;;;;;14.70;99.90;;;;;;5036236;28;19943;-74
2022/10/16 09:06:17;;;;;;;;;;;14.80;99.90;;;;;;5026581;28;19966;-73
2022/10/16 09:08:42;;;;;;;;;;;15.10;99.90;;;;;;5050625;28;19917;-73
2022/10/16 09:11:08;;;;;;;;;;;15.40;99.90;;;;;;5047504;28;20054;-73
2022/10/16 09:13:47;;;;;;;;;;;17.40;99.90;;;;;;5046162;28;19923;-73
2022/10/16 09:16:13;;;;;;;;;;;15.40;99.90;;;;;;5033525;28;19921;-74
2022/10/16 09:19:04;;;;;;;;;;;15.70;99.90;;;;;;5041112;28;20000;-73
2022/10/16 09:21:31;;;;;;;;;;;15.40;99.90;;;;;;5008210;28;19921;-74
2022/10/16 09:23:58;;;;;;;;;;;15.10;99.90;;;;;;5048162;28;19917;-74
2022/10/16 09:26:23;;;;;;;;;;;15.40;99.90;;;;;;5039378;28;20005;-74
2022/10/16 09:28:51;;;;;;;;;;;15.30;99.90;;;;;;5054330;28;20378;-74
2022/10/16 09:31:18;;;;;;;;;;;16.40;99.90;;;;;;5047820;28;19917;-74
2022/10/16 09:33:45;;;;;;;;;;;15.80;99.90;;;;;;5055072;28;20357;-74
2022/10/16 09:36:11;;;;;;;;;;;16.90;99.90;;;;;;5050605;28;20291;-74
2022/10/16 09:38:37;;;;;;;;;;;15.40;99.90;;;;;;5051949;28;19917;-74
2022/10/16 09:41:16;;;;;;;;;;;15.30;99.90;;;;;;5044804;28;19999;-73
2022/10/16 09:43:46;;;;;;;;;;;15.30;99.90;;;;;;5044732;28;19927;-75
2022/10/16 09:46:29;;;;;;;;;;;14.20;99.90;;;;;;5044873;28;19916;-74
2022/10/16 09:48:56;;;;;;;;;;;15.40;99.90;;;;;;5051890;28;19963;-74
2022/10/16 09:51:35;;;;;;;;;;;15.60;99.90;;;;;;5050693;28;19952;-73
2022/10/16 09:54:12;;;;;;;;;;;15.60;99.90;;;;;;5053650;28;19973;-73
2022/10/16 09:56:41;;;;;;;;;;;15.60;99.90;;;;;;5055224;28;20405;-74
2022/10/16 09:59:16;;;;;;;;;;;17.20;99.90;;;;;;5050667;28;19917;-74
2022/10/16 10:01:47;;;;;;;;;;;15.60;99.90;;;;;;5049170;28;19920;-74
2022/10/16 10:04:13;;;;;;;;;;;15.70;99.90;;;;;;5033494;28;19917;-74
2022/10/16 10:06:48;;;;;;;;;;;15.80;99.90;;;;;;5045169;28;19970;-74
2022/10/16 10:09:27;;;;;;;;;;;16.00;99.90;;;;;;5050574;28;19916;-73
2022/10/16 10:11:55;;;;;;;;;;;16.10;99.90;;;;;;5047371;28;20004;-74
2022/10/16 10:14:33;;;;;;;;;;;15.90;99.90;;;;;;5044940;28;19921;-74
2022/10/16 10:17:04;;;;;;;;;;;16.00;99.90;;;;;;5019895;28;19921;-74
2022/10/16 10:19:36;;;;;;;;;;;16.30;99.90;;;;;;5049055;28;19975;-73
2022/10/16 10:22:12;;;;;;;;;;;16.20;99.90;;;;;;5031691;28;19921;-74
2022/10/16 10:24:38;;;;;;;;;;;16.50;99.90;;;;;;5053205;28;19923;-73
2022/10/16 10:27:10;;;;;;;;;;;18.00;99.90;;;;;;5054408;28;20003;-73
2022/10/16 10:29:43;;;;;;;;;;;16.50;99.90;;;;;;5050223;28;19917;-73
2022/10/16 10:32:29;;;;;;;;;;;16.70;99.90;;;;;;5052640;28;19917;-73
2022/10/16 10:35:12;;;;;;;;;;;17.00;99.90;;;;;;5045140;28;19966;-72
2022/10/16 10:38:03;;;;;;;;;;;16.30;99.90;;;;;;5050022;28;20298;-73
2022/10/16 10:40:50;;;;;;;;;;;16.40;99.90;;;;;;5050314;28;19966;-73
2022/10/16 10:43:27;;;;;;;;;;;16.80;99.90;;;;;;5048389;28;19917;-74
2022/10/16 10:45:57;;;;;;;;;;;16.50;99.90;;;;;;5049652;28;19916;-74
2022/10/16 10:48:23;;;;;;;;;;;17.70;99.90;;;;;;5049245;28;20285;-74
2022/10/16 10:51:01;;;;;;;;;;;16.90;99.90;;;;;;5046860;28;19963;-74
2022/10/16 10:53:26;;;;;;;;;;;17.00;99.90;;;;;;5051126;28;19923;-74
2022/10/16 10:55:58;;;;;;;;;;;17.40;99.90;;;;;;5051246;28;19925;-74
2022/10/16 10:58:27;;;;;;;;;;;17.00;99.90;;;;;;5051339;28;19970;-74
2022/10/16 11:01:10;;;;;;;;;;;17.10;99.90;;;;;;5020610;28;19917;-74
2022/10/16 11:03:41;;;;;;;;;;;16.90;99.90;;;;;;5042133;28;19924;-73
2022/10/16 11:06:26;;;;;;;;;;;17.10;99.90;;;;;;5040031;28;20292;-73
2022/10/16 11:08:53;;;;;;;;;;;16.90;99.90;;;;;;5050804;28;20080;-72
2022/10/16 11:11:29;;;;;;;;;;;16.70;99.90;;;;;;5051949;28;20409;-73
2022/10/16 11:14:10;;;;;;;;;;;16.60;99.90;;;;;;5042845;28;19917;-73
2022/10/16 11:16:39;;;;;;;;;;;16.50;99.90;;;;;;5031620;28;19921;-72
2022/10/16 11:19:12;;;;;;;;;;;16.20;99.90;;;;;;5047969;28;19921;-72
2022/10/16 11:21:42;;;;;;;;;;;17.20;99.90;;;;;;5057754;28;19963;-73
2022/10/16 11:24:16;;;;;;;;;;;16.70;99.90;;;;;;5052949;28;19916;-72
2022/10/16 11:26:42;;;;;;;;;;;16.70;99.90;;;;;;5049651;28;19960;-74
2022/10/16 11:29:13;;;;;;;;;;;17.70;99.90;;;;;;5049099;28;20028;-74
2022/10/16 11:31:40;;;;;;;;;;;16.90;99.90;;;;;;5048648;28;19917;-75
2022/10/16 11:34:17;;;;;;;;;;;17.20;99.90;;;;;;5043385;28;19917;-73
2022/10/16 11:37:01;;;;;;;;;;;17.20;99.90;;;;;;5042561;28;19925;-74
2022/10/16 11:39:28;;;;;;;;;;;17.20;99.90;;;;;;5045538;28;21371;-73
2022/10/16 11:41:54;;;;;;;;;;;17.30;99.90;;;;;;5016550;28;20003;-73
2022/10/16 11:44:31;;;;;;;;;;;16.90;99.90;;;;;;5015245;28;20007;-73
2022/10/16 11:47:17;;;;;;;;;;;17.10;99.90;;;;;;5031950;28;20338;-73
2022/10/16 11:49:44;;;;;;;;;;;16.90;99.90;;;;;;5005927;28;19916;-73
2022/10/16 11:52:28;;;;;;;;;;;16.60;99.90;;;;;;5034616;28;19916;-73
2022/10/16 11:54:56;;;;;;;;;;;16.60;99.90;;;;;;5032547;28;19984;-73
2022/10/16 11:57:31;;;;;;;;;;;16.70;99.90;;;;;;5036687;28;19925;-74
2022/10/16 12:00:06;;;;;;;;;;;16.40;99.90;;;;;;5042383;28;20003;-74
2022/10/16 12:02:37;;;;;;;;;;;16.40;99.90;;;;;;5031714;28;19917;-74
2022/10/16 12:05:03;;;;;;;;;;;16.40;99.90;;;;;;5031885;28;19921;-73
2022/10/16 12:07:34;;;;;;;;;;;16.30;99.90;;;;;;5034490;28;19924;-73
2022/10/16 12:10:09;;;;;;;;;;;16.50;99.90;;;;;;5037441;28;20299;-73
2022/10/16 12:12:35;;;;;;;;;;;16.60;99.90;;;;;;5038889;28;20286;-74
2022/10/16 12:15:02;;;;;;;;;;;16.70;99.90;;;;;;5039730;28;19928;-73
2022/10/16 12:17:37;;;;;;;;;;;17.30;99.90;;;;;;5033387;28;19917;-70
2022/10/16 12:20:12;;;;;;;;;;;16.90;99.90;;;;;;5050974;28;19916;-73
2022/10/16 12:22:41;;;;;;;;;;;17.00;99.90;;;;;;5036782;28;20019;-72
2022/10/16 12:25:20;;;;;;;;;;;17.50;99.90;;;;;;5046862;28;19923;-72
2022/10/16 12:27:53;;;;;;;;;;;17.00;99.90;;;;;;5052367;28;19917;-74
2022/10/16 12:30:21;;;;;;;;;;;17.00;99.90;;;;;;5051020;28;19924;-73
2022/10/16 12:32:53;;;;;;;;;;;17.30;99.90;;;;;;5034484;28;20370;-73
2022/10/16 12:35:20;;;;;;;;;;;16.90;99.90;;;;;;5050583;28;20370;-73
2022/10/16 12:37:46;;;;;;;;;;;16.90;99.90;;;;;;5051438;28;19917;-72
2022/10/16 12:40:29;;;;;;;;;;;17.00;99.90;;;;;;5048454;28;19920;-72
2022/10/16 12:42:55;;;;;;;;;;;16.70;99.90;;;;;;5030967;28;19921;-72
2022/10/16 12:45:28;;;;;;;;;;;17.30;99.90;;;;;;5030655;28;19917;-72
2022/10/16 12:47:55;;;;;;;;;;;16.50;99.90;;;;;;5031233;28;19917;-72
2022/10/16 12:50:26;;;;;;;;;;;16.90;99.90;;;;;;5019371;28;19917;-72
2022/10/16 12:52:52;;;;;;;;;;;16.60;99.90;;;;;;5041032;28;19956;-72
2022/10/16 12:55:19;;;;;;;;;;;16.50;99.90;;;;;;5038771;28;20038;-72
2022/10/16 12:57:56;;;;;;;;;;;16.70;99.90;;;;;;5043948;28;19917;-72
2022/10/16 13:00:21;;;;;;;;;;;16.90;99.90;;;;;;5044942;28;19921;-72
2022/10/16 13:02:50;;;;;;;;;;;16.80;99.90;;;;;;5048591;28;19940;-72
2022/10/16 13:05:36;;;;;;;;;;;16.40;99.90;;;;;;5055716;28;20362;-72
2022/10/16 13:08:13;;;;;;;;;;;16.30;99.90;;;;;;4996803;28;19917;-72
2022/10/16 13:10:59;;;;;;;;;;;16.60;99.90;;;;;;5037779;28;19962;-73
2022/10/16 13:13:24;;;;;;;;;;;16.70;99.90;;;;;;5049110;28;20353;-72
2022/10/16 13:15:53;;;;;;;;;;;16.70;99.90;;;;;;5050381;28;20008;-72
2022/10/16 13:18:18;;;;;;;;;;;16.60;99.90;;;;;;5034508;28;19916;-72
2022/10/16 13:20:50;;;;;;;;;;;16.70;99.90;;;;;;5034562;28;19917;-73
2022/10/16 13:23:20;;;;;;;;;;;16.80;99.90;;;;;;5034374;28;19964;-71
2022/10/16 13:25:58;;;;;;;;;;;17.10;99.90;;;;;;5048795;28;19971;-72
2022/10/16 13:28:28;;;;;;;;;;;16.40;99.90;;;;;;5055469;28;19917;-72
2022/10/16 13:30:56;;;;;;;;;;;16.60;99.90;;;;;;5041925;28;19917;-72
2022/10/16 13:33:31;;;;;;;;;;;16.40;99.90;;;;;;5035693;28;20287;-72
2022/10/16 13:35:57;;;;;;;;;;;16.30;99.90;;;;;;5038377;28;19921;-72
2022/10/16 13:38:24;;;;;;;;;;;16.70;99.90;;;;;;5044661;28;20391;-72
2022/10/16 13:40:54;;;;;;;;;;;16.50;99.90;;;;;;5044031;28;19916;-72
2022/10/16 13:43:22;;;;;;;;;;;16.60;99.90;;;;;;5049827;28;19917;-72
2022/10/16 13:46:02;;;;;;;;;;;16.60;99.90;;;;;;5045854;28;19974;-72
2022/10/16 13:48:28;;;;;;;;;;;16.70;99.90;;;;;;5062485;28;19916;-72
2022/10/16 13:51:00;;;;;;;;;;;16.70;99.90;;;;;;5055072;28;19923;-72
2022/10/16 13:53:26;;;;;;;;;;;16.80;99.90;;;;;;5054415;28;19971;-72
2022/10/16 13:55:52;;;;;;;;;;;16.90;99.90;;;;;;5053154;28;20018;-69
2022/10/16 13:58:17;;;;;;;;;;;17.30;99.90;;;;;;5053839;28;20003;-71
2022/10/16 14:00:56;;;;;;;;;;;16.70;99.90;;;;;;5054645;28;19916;-71
2022/10/16 14:03:22;;;;;;;;;;;16.80;99.90;;;;;;5043691;28;19921;-71
2022/10/16 14:05:49;;;;;;;;;;;16.80;99.90;;;;;;5034762;28;20062;-72
2022/10/16 14:08:15;;;;;;;;;;;16.90;99.90;;;;;;5032658;28;20330;-71
2022/10/16 14:10:40;;;;;;;;;;;17.50;99.90;;;;;;5034397;28;19936;-71
2022/10/16 14:13:06;;;;;;;;;;;17.20;99.90;;;;;;5034852;28;19917;-71
2022/10/16 14:15:33;;;;;;;;;;;17.00;99.90;;;;;;5033445;28;19928;-72
2022/10/16 14:17:59;;;;;;;;;;;16.80;99.90;;;;;;5033779;28;19967;-71
2022/10/16 14:20:26;;;;;;;;;;;16.50;99.90;;;;;;5036172;28;19949;-71
2022/10/16 14:23:00;;;;;;;;;;;16.40;99.90;;;;;;5042209;28;19920;-71
2022/10/16 14:25:29;;;;;;;;;;;16.40;99.90;;;;;;5043983;28;19939;-72
2022/10/16 14:27:58;;;;;;;;;;;16.30;99.90;;;;;;5043293;28;19917;-71